KCAO/CAO METAR and TAF weather

Enter ICAO airport designator
Station Type Date Time Source
KCAO METAR 2021/10/24 20:55 UTC NOAA

KCAO 242055Z AUTO 22012G17KT 10SM CLR 21/M02 A2992 RMK AO2 SLP077 T02111017 56014


Station Type Date Time Source
KCAO Decoded METAR 2021/10/24 20:55 UTC NOAA

CLAYTON MUNICIPAL AIRPARK, NM, United States (KCAO) 36-27N 103-09W 1514M
Oct 24, 2021 - 04:55 PM EDT / 2021.10.24 2055 UTC
Wind: from the SW (220 degrees) at 14 MPH (12 KT) gusting to 20 MPH (17 KT):0
Visibility: 10 mile(s):0
Sky conditions: clear
Temperature: 70.0 F (21.1 C)
Dew Point: 28.9 F (-1.7 C)
Relative Humidity: 21%
Pressure (altimeter): 29.92 in. Hg (1013 hPa)
Pressure tendency: 0.04 inches (1.4 hPa) lower than three hours ago
ob: KCAO 242055Z AUTO 22012G17KT 10SM CLR 21/M02 A2992 RMK AO2 SLP077 T02111017 56014
cycle: 21

Station Type Date Time Source
KCAO TAF UTC NOAA

Error!

Example: see airport list